sensor_id;sensor_type;location;lat;lon;timestamp;temperature;humidity
43524;DHT22;29120;52.006;6.020;2023-03-26T00:01:20;9.00;99.90
43524;DHT22;29120;52.006;6.020;2023-03-26T00:03:46;9.00;99.90
43524;DHT22;29120;52.006;6.020;2023-03-26T00:06:18;9.00;99.90
43524;DHT22;29120;52.006;6.020;2023-03-26T00:08:44;9.00;99.90
43524;DHT22;29120;52.006;6.020;2023-03-26T00:11:10;9.00;99.90
43524;DHT22;29120;52.006;6.020;2023-03-26T00:13:36;9.10;99.90
43524;DHT22;29120;52.006;6.020;2023-03-26T00:16:02;9.10;99.90
43524;DHT22;29120;52.006;6.020;2023-03-26T00:18:28;9.00;99.90
43524;DHT22;29120;52.006;6.020;2023-03-26T00:20:56;9.10;99.90
43524;DHT22;29120;52.006;6.020;2023-03-26T00:23:22;9.10;99.90
43524;DHT22;29120;52.006;6.020;2023-03-26T00:25:47;9.10;99.90
43524;DHT22;29120;52.006;6.020;2023-03-26T00:28:15;9.10;99.90
43524;DHT22;29120;52.006;6.020;2023-03-26T00:30:41;9.10;99.90
43524;DHT22;29120;52.006;6.020;2023-03-26T00:33:07;9.10;99.90
43524;DHT22;29120;52.006;6.020;2023-03-26T00:35:38;9.10;99.90
43524;DHT22;29120;52.006;6.020;2023-03-26T00:38:04;9.20;99.90
43524;DHT22;29120;52.006;6.020;2023-03-26T00:40:29;9.20;99.90
43524;DHT22;29120;52.006;6.020;2023-03-26T00:42:56;9.20;99.90
43524;DHT22;29120;52.006;6.020;2023-03-26T00:45:21;9.20;99.90
43524;DHT22;29120;52.006;6.020;2023-03-26T00:47:47;9.20;99.90
43524;DHT22;29120;52.006;6.020;2023-03-26T00:50:12;9.20;99.90
43524;DHT22;29120;52.006;6.020;2023-03-26T00:52:43;9.20;99.90
43524;DHT22;29120;52.006;6.020;2023-03-26T00:55:10;9.20;99.90
43524;DHT22;29120;52.006;6.020;2023-03-26T00:57:36;9.20;99.90
43524;DHT22;29120;52.006;6.020;2023-03-26T01:00:05;9.20;99.90
43524;DHT22;29120;52.006;6.020;2023-03-26T01:02:34;9.20;99.90
43524;DHT22;29120;52.006;6.020;2023-03-26T01:04:59;9.20;99.90
43524;DHT22;29120;52.006;6.020;2023-03-26T01:07:28;9.10;99.90
43524;DHT22;29120;52.006;6.020;2023-03-26T01:09:55;9.10;99.90
43524;DHT22;29120;52.006;6.020;2023-03-26T01:12:23;9.10;99.90
43524;DHT22;29120;52.006;6.020;2023-03-26T01:14:50;9.10;99.90
43524;DHT22;29120;52.006;6.020;2023-03-26T01:17:17;9.20;99.90
43524;DHT22;29120;52.006;6.020;2023-03-26T01:19:56;9.20;99.90
43524;DHT22;29120;52.006;6.020;2023-03-26T01:22:25;9.20;99.90
43524;DHT22;29120;52.006;6.020;2023-03-26T01:24:51;9.20;99.90
43524;DHT22;29120;52.006;6.020;2023-03-26T01:32:35;9.30;99.90
43524;DHT22;29120;52.006;6.020;2023-03-26T01:37:32;9.40;99.90
43524;DHT22;29120;52.006;6.020;2023-03-26T01:40:08;9.40;99.90
43524;DHT22;29120;52.006;6.020;2023-03-26T01:42:52;9.50;99.90
43524;DHT22;29120;52.006;6.020;2023-03-26T01:45:26;9.50;99.90
43524;DHT22;29120;52.006;6.020;2023-03-26T01:47:52;9.50;99.90
43524;DHT22;29120;52.006;6.020;2023-03-26T01:50:18;9.50;99.90
43524;DHT22;29120;52.006;6.020;2023-03-26T01:52:44;9.50;99.90
43524;DHT22;29120;52.006;6.020;2023-03-26T01:55:10;9.50;99.90
43524;DHT22;29120;52.006;6.020;2023-03-26T02:05:52;9.50;99.90
43524;DHT22;29120;52.006;6.020;2023-03-26T02:08:21;9.50;99.90
43524;DHT22;29120;52.006;6.020;2023-03-26T02:10:49;9.50;99.90
43524;DHT22;29120;52.006;6.020;2023-03-26T02:13:15;9.50;99.90
43524;DHT22;29120;52.006;6.020;2023-03-26T02:15:52;9.60;99.90
43524;DHT22;29120;52.006;6.020;2023-03-26T02:18:18;9.60;99.90
43524;DHT22;29120;52.006;6.020;2023-03-26T02:20:49;9.60;99.90
43524;DHT22;29120;52.006;6.020;2023-03-26T02:23:18;9.60;99.90
43524;DHT22;29120;52.006;6.020;2023-03-26T02:25:43;9.60;99.90
43524;DHT22;29120;52.006;6.020;2023-03-26T02:28:09;9.60;99.90
43524;DHT22;29120;52.006;6.020;2023-03-26T02:30:34;9.60;99.90
43524;DHT22;29120;52.006;6.020;2023-03-26T02:32:59;9.70;99.90
43524;DHT22;29120;52.006;6.020;2023-03-26T02:35:25;9.60;99.90
43524;DHT22;29120;52.006;6.020;2023-03-26T02:37:51;9.60;99.90
43524;DHT22;29120;52.006;6.020;2023-03-26T02:40:17;9.60;99.90
43524;DHT22;29120;52.006;6.020;2023-03-26T02:42:42;9.60;99.90
43524;DHT22;29120;52.006;6.020;2023-03-26T02:45:08;9.60;99.90
43524;DHT22;29120;52.006;6.020;2023-03-26T02:47:33;9.60;99.90
43524;DHT22;29120;52.006;6.020;2023-03-26T02:49:59;9.60;99.90
43524;DHT22;29120;52.006;6.020;2023-03-26T02:52:26;9.60;99.90
43524;DHT22;29120;52.006;6.020;2023-03-26T02:54:51;9.60;99.90
43524;DHT22;29120;52.006;6.020;2023-03-26T02:57:18;9.60;99.90
43524;DHT22;29120;52.006;6.020;2023-03-26T02:59:43;9.60;99.90
43524;DHT22;29120;52.006;6.020;2023-03-26T03:02:10;9.60;99.90
43524;DHT22;29120;52.006;6.020;2023-03-26T03:04:37;9.70;99.90
43524;DHT22;29120;52.006;6.020;2023-03-26T03:07:03;9.70;99.90
43524;DHT22;29120;52.006;6.020;2023-03-26T03:09:28;9.60;99.90
43524;DHT22;29120;52.006;6.020;2023-03-26T03:11:54;9.60;99.90
43524;DHT22;29120;52.006;6.020;2023-03-26T03:14:20;9.50;99.90
43524;DHT22;29120;52.006;6.020;2023-03-26T03:16:45;9.50;99.90
43524;DHT22;29120;52.006;6.020;2023-03-26T03:19:11;9.50;99.90
43524;DHT22;29120;52.006;6.020;2023-03-26T03:21:37;9.50;99.90
43524;DHT22;29120;52.006;6.020;2023-03-26T03:24:03;9.50;99.90
43524;DHT22;29120;52.006;6.020;2023-03-26T03:26:28;9.50;99.90
43524;DHT22;29120;52.006;6.020;2023-03-26T03:28:55;9.50;99.90
43524;DHT22;29120;52.006;6.020;2023-03-26T03:31:22;9.50;99.90
43524;DHT22;29120;52.006;6.020;2023-03-26T03:33:49;9.50;99.90
43524;DHT22;29120;52.006;6.020;2023-03-26T03:36:15;9.50;99.90
43524;DHT22;29120;52.006;6.020;2023-03-26T03:38:42;9.50;99.90
43524;DHT22;29120;52.006;6.020;2023-03-26T03:41:08;9.50;99.90
43524;DHT22;29120;52.006;6.020;2023-03-26T03:43:33;9.50;99.90
43524;DHT22;29120;52.006;6.020;2023-03-26T03:45:59;9.60;99.90
43524;DHT22;29120;52.006;6.020;2023-03-26T03:48:25;9.60;99.90
43524;DHT22;29120;52.006;6.020;2023-03-26T03:50:50;9.50;99.90
43524;DHT22;29120;52.006;6.020;2023-03-26T03:53:16;9.60;99.90
43524;DHT22;29120;52.006;6.020;2023-03-26T03:55:42;9.60;99.90
43524;DHT22;29120;52.006;6.020;2023-03-26T03:58:17;9.60;99.90
43524;DHT22;29120;52.006;6.020;2023-03-26T04:00:49;9.60;99.90
43524;DHT22;29120;52.006;6.020;2023-03-26T04:03:15;9.60;99.90
43524;DHT22;29120;52.006;6.020;2023-03-26T04:05:41;9.60;99.90
43524;DHT22;29120;52.006;6.020;2023-03-26T04:08:08;9.60;99.90
43524;DHT22;29120;52.006;6.020;2023-03-26T04:10:33;9.60;99.90
43524;DHT22;29120;52.006;6.020;2023-03-26T04:12:58;9.60;99.90
43524;DHT22;29120;52.006;6.020;2023-03-26T04:15:24;9.60;99.90
43524;DHT22;29120;52.006;6.020;2023-03-26T04:17:50;9.60;99.90
43524;DHT22;29120;52.006;6.020;2023-03-26T04:20:16;9.70;99.90
43524;DHT22;29120;52.006;6.020;2023-03-26T04:22:43;9.60;99.90
43524;DHT22;29120;52.006;6.020;2023-03-26T04:25:10;9.60;99.90
43524;DHT22;29120;52.006;6.020;2023-03-26T04:27:36;9.70;99.90
43524;DHT22;29120;52.006;6.020;2023-03-26T04:30:06;9.70;99.90
43524;DHT22;29120;52.006;6.020;2023-03-26T04:32:32;9.70;99.90
43524;DHT22;29120;52.006;6.020;2023-03-26T04:34:58;9.70;99.90
43524;DHT22;29120;52.006;6.020;2023-03-26T04:37:25;9.70;99.90
43524;DHT22;29120;52.006;6.020;2023-03-26T04:39:52;9.70;99.90
43524;DHT22;29120;52.006;6.020;2023-03-26T04:42:18;9.70;99.90
43524;DHT22;29120;52.006;6.020;2023-03-26T04:44:45;9.70;99.90
43524;DHT22;29120;52.006;6.020;2023-03-26T04:47:11;9.70;99.90
43524;DHT22;29120;52.006;6.020;2023-03-26T04:49:37;9.70;99.90
43524;DHT22;29120;52.006;6.020;2023-03-26T04:52:02;9.70;99.90
43524;DHT22;29120;52.006;6.020;2023-03-26T04:54:28;9.70;99.90
43524;DHT22;29120;52.006;6.020;2023-03-26T04:56:58;9.70;99.90
43524;DHT22;29120;52.006;6.020;2023-03-26T04:59:25;9.70;99.90
43524;DHT22;29120;52.006;6.020;2023-03-26T05:01:55;9.70;99.90
43524;DHT22;29120;52.006;6.020;2023-03-26T05:04:22;9.60;99.90
43524;DHT22;29120;52.006;6.020;2023-03-26T05:06:48;9.60;99.90
43524;DHT22;29120;52.006;6.020;2023-03-26T05:09:14;9.70;99.90
43524;DHT22;29120;52.006;6.020;2023-03-26T05:11:39;9.60;99.90
43524;DHT22;29120;52.006;6.020;2023-03-26T05:14:05;9.60;99.90
43524;DHT22;29120;52.006;6.020;2023-03-26T05:16:30;9.70;99.90
43524;DHT22;29120;52.006;6.020;2023-03-26T05:18:56;9.70;99.90
43524;DHT22;29120;52.006;6.020;2023-03-26T05:21:22;9.70;99.90
43524;DHT22;29120;52.006;6.020;2023-03-26T05:23:47;9.70;99.90
43524;DHT22;29120;52.006;6.020;2023-03-26T05:26:13;9.70;99.90
43524;DHT22;29120;52.006;6.020;2023-03-26T05:28:38;9.70;99.90
43524;DHT22;29120;52.006;6.020;2023-03-26T05:31:04;9.70;99.90
43524;DHT22;29120;52.006;6.020;2023-03-26T05:33:29;9.60;99.90
43524;DHT22;29120;52.006;6.020;2023-03-26T05:35:59;9.60;99.90
43524;DHT22;29120;52.006;6.020;2023-03-26T05:38:26;9.60;99.90
43524;DHT22;29120;52.006;6.020;2023-03-26T05:40:56;9.60;99.90
43524;DHT22;29120;52.006;6.020;2023-03-26T05:43:21;9.60;99.90
43524;DHT22;29120;52.006;6.020;2023-03-26T05:45:47;9.60;99.90
43524;DHT22;29120;52.006;6.020;2023-03-26T05:48:12;9.70;99.90
43524;DHT22;29120;52.006;6.020;2023-03-26T05:50:38;9.60;99.90
43524;DHT22;29120;52.006;6.020;2023-03-26T05:53:03;9.60;99.90
43524;DHT22;29120;52.006;6.020;2023-03-26T05:55:29;9.60;99.90
43524;DHT22;29120;52.006;6.020;2023-03-26T05:57:57;9.50;99.90
43524;DHT22;29120;52.006;6.020;2023-03-26T06:00:23;9.50;99.90
43524;DHT22;29120;52.006;6.020;2023-03-26T06:02:49;9.50;99.90
43524;DHT22;29120;52.006;6.020;2023-03-26T06:05:14;9.50;99.90
43524;DHT22;29120;52.006;6.020;2023-03-26T06:07:40;9.50;99.90
43524;DHT22;29120;52.006;6.020;2023-03-26T06:10:06;9.50;99.90
43524;DHT22;29120;52.006;6.020;2023-03-26T06:12:31;9.40;99.90
43524;DHT22;29120;52.006;6.020;2023-03-26T06:14:57;9.40;99.90
43524;DHT22;29120;52.006;6.020;2023-03-26T06:17:22;9.40;99.90
43524;DHT22;29120;52.006;6.020;2023-03-26T06:19:48;9.40;99.90
43524;DHT22;29120;52.006;6.020;2023-03-26T06:22:13;9.40;99.90
43524;DHT22;29120;52.006;6.020;2023-03-26T06:24:38;9.40;99.90
43524;DHT22;29120;52.006;6.020;2023-03-26T06:27:04;9.50;99.90
43524;DHT22;29120;52.006;6.020;2023-03-26T06:29:30;9.50;99.90
43524;DHT22;29120;52.006;6.020;2023-03-26T06:31:55;9.50;99.90
43524;DHT22;29120;52.006;6.020;2023-03-26T06:34:21;9.50;99.90
43524;DHT22;29120;52.006;6.020;2023-03-26T06:36:46;9.50;99.90
43524;DHT22;29120;52.006;6.020;2023-03-26T06:39:13;9.50;99.90
43524;DHT22;29120;52.006;6.020;2023-03-26T06:41:38;9.50;99.90
43524;DHT22;29120;52.006;6.020;2023-03-26T06:44:04;9.50;99.90
43524;DHT22;29120;52.006;6.020;2023-03-26T06:46:30;9.50;99.90
43524;DHT22;29120;52.006;6.020;2023-03-26T06:48:55;9.50;99.90
43524;DHT22;29120;52.006;6.020;2023-03-26T06:51:21;9.60;99.90
43524;DHT22;29120;52.006;6.020;2023-03-26T06:53:46;9.60;99.90
43524;DHT22;29120;52.006;6.020;2023-03-26T06:56:12;9.60;99.90
43524;DHT22;29120;52.006;6.020;2023-03-26T06:58:37;9.60;99.90
43524;DHT22;29120;52.006;6.020;2023-03-26T07:01:03;9.60;99.90
43524;DHT22;29120;52.006;6.020;2023-03-26T07:03:28;9.60;99.90
43524;DHT22;29120;52.006;6.020;2023-03-26T07:05:54;9.60;99.90
43524;DHT22;29120;52.006;6.020;2023-03-26T07:08:19;9.60;99.90
43524;DHT22;29120;52.006;6.020;2023-03-26T07:10:45;9.60;99.90
43524;DHT22;29120;52.006;6.020;2023-03-26T07:13:10;9.70;99.90
43524;DHT22;29120;52.006;6.020;2023-03-26T07:15:36;9.70;99.90
43524;DHT22;29120;52.006;6.020;2023-03-26T07:18:01;9.60;99.90
43524;DHT22;29120;52.006;6.020;2023-03-26T07:20:27;9.70;99.90
43524;DHT22;29120;52.006;6.020;2023-03-26T07:22:53;9.70;99.90
43524;DHT22;29120;52.006;6.020;2023-03-26T07:25:18;9.70;99.90
43524;DHT22;29120;52.006;6.020;2023-03-26T07:33:05;9.70;99.90
43524;DHT22;29120;52.006;6.020;2023-03-26T07:38:32;9.70;99.90
43524;DHT22;29120;52.006;6.020;2023-03-26T07:41:12;9.70;99.90
43524;DHT22;29120;52.006;6.020;2023-03-26T07:46:26;9.80;99.90
43524;DHT22;29120;52.006;6.020;2023-03-26T07:48:53;9.80;99.90
43524;DHT22;29120;52.006;6.020;2023-03-26T07:51:21;9.90;99.90
43524;DHT22;29120;52.006;6.020;2023-03-26T07:53:47;9.90;99.90
43524;DHT22;29120;52.006;6.020;2023-03-26T07:56:18;9.80;99.90
43524;DHT22;29120;52.006;6.020;2023-03-26T07:58:47;9.90;99.90
43524;DHT22;29120;52.006;6.020;2023-03-26T08:03:48;9.80;99.90
43524;DHT22;29120;52.006;6.020;2023-03-26T08:06:19;9.80;99.90
43524;DHT22;29120;52.006;6.020;2023-03-26T08:08:52;9.80;99.90
43524;DHT22;29120;52.006;6.020;2023-03-26T08:11:32;9.90;99.90
43524;DHT22;29120;52.006;6.020;2023-03-26T08:16:33;10.00;99.90
43524;DHT22;29120;52.006;6.020;2023-03-26T08:21:58;10.10;99.90
43524;DHT22;29120;52.006;6.020;2023-03-26T08:29:35;10.10;99.90
43524;DHT22;29120;52.006;6.020;2023-03-26T08:32:02;10.10;99.90
43524;DHT22;29120;52.006;6.020;2023-03-26T08:34:28;10.10;99.90
43524;DHT22;29120;52.006;6.020;2023-03-26T08:36:53;10.10;99.90
43524;DHT22;29120;52.006;6.020;2023-03-26T08:39:19;10.10;99.90
43524;DHT22;29120;52.006;6.020;2023-03-26T08:52:04;10.00;99.90
43524;DHT22;29120;52.006;6.020;2023-03-26T09:15:24;9.80;99.90
43524;DHT22;29120;52.006;6.020;2023-03-26T09:36:42;9.90;99.90
43524;DHT22;29120;52.006;6.020;2023-03-26T09:39:16;9.80;99.90
43524;DHT22;29120;52.006;6.020;2023-03-26T09:49:48;9.70;99.90
43524;DHT22;29120;52.006;6.020;2023-03-26T09:52:02;9.80;99.90
43524;DHT22;29120;52.006;6.020;2023-03-26T09:57:05;9.80;99.90
43524;DHT22;29120;52.006;6.020;2023-03-26T09:59:53;9.80;99.90
43524;DHT22;29120;52.006;6.020;2023-03-26T10:07:48;9.90;99.90
43524;DHT22;29120;52.006;6.020;2023-03-26T10:10:22;9.90;99.90
43524;DHT22;29120;52.006;6.020;2023-03-26T10:12:50;9.90;99.90
43524;DHT22;29120;52.006;6.020;2023-03-26T10:15:51;10.00;99.90
43524;DHT22;29120;52.006;6.020;2023-03-26T10:21:05;10.00;99.90
43524;DHT22;29120;52.006;6.020;2023-03-26T10:30:56;10.30;99.90
43524;DHT22;29120;52.006;6.020;2023-03-26T10:36:26;10.40;99.90
43524;DHT22;29120;52.006;6.020;2023-03-26T10:41:27;10.60;99.90
43524;DHT22;29120;52.006;6.020;2023-03-26T10:46:40;10.70;99.90
43524;DHT22;29120;52.006;6.020;2023-03-26T10:51:58;10.70;99.90
43524;DHT22;29120;52.006;6.020;2023-03-26T10:54:28;10.60;99.90
43524;DHT22;29120;52.006;6.020;2023-03-26T10:56:57;10.60;99.90
43524;DHT22;29120;52.006;6.020;2023-03-26T10:59:24;10.50;99.90
43524;DHT22;29120;52.006;6.020;2023-03-26T11:01:54;10.50;99.90
43524;DHT22;29120;52.006;6.020;2023-03-26T11:09:29;10.10;99.90
43524;DHT22;29120;52.006;6.020;2023-03-26T11:12:00;10.10;99.90
43524;DHT22;29120;52.006;6.020;2023-03-26T11:14:42;10.00;99.90
43524;DHT22;29120;52.006;6.020;2023-03-26T11:17:15;10.00;99.90
43524;DHT22;29120;52.006;6.020;2023-03-26T11:19:47;9.90;99.90
43524;DHT22;29120;52.006;6.020;2023-03-26T11:27:41;9.90;99.90
43524;DHT22;29120;52.006;6.020;2023-03-26T11:32:54;9.90;99.90
43524;DHT22;29120;52.006;6.020;2023-03-26T11:35:40;10.00;99.90
43524;DHT22;29120;52.006;6.020;2023-03-26T11:38:11;10.00;99.90
43524;DHT22;29120;52.006;6.020;2023-03-26T11:40:38;10.00;99.90
43524;DHT22;29120;52.006;6.020;2023-03-26T11:43:09;10.00;99.90
43524;DHT22;29120;52.006;6.020;2023-03-26T11:45:40;10.00;99.90
43524;DHT22;29120;52.006;6.020;2023-03-26T11:48:12;10.00;99.90
43524;DHT22;29120;52.006;6.020;2023-03-26T11:50:46;10.10;99.90
43524;DHT22;29120;52.006;6.020;2023-03-26T11:53:14;10.10;99.90
43524;DHT22;29120;52.006;6.020;2023-03-26T11:55:41;10.10;99.90
43524;DHT22;29120;52.006;6.020;2023-03-26T11:58:20;10.10;99.90
43524;DHT22;29120;52.006;6.020;2023-03-26T12:00:47;10.00;99.90
43524;DHT22;29120;52.006;6.020;2023-03-26T12:03:14;10.00;99.90
43524;DHT22;29120;52.006;6.020;2023-03-26T12:05:47;10.00;99.90
43524;DHT22;29120;52.006;6.020;2023-03-26T12:11:11;10.10;99.90
43524;DHT22;29120;52.006;6.020;2023-03-26T12:13:40;10.10;99.90
43524;DHT22;29120;52.006;6.020;2023-03-26T12:16:08;10.10;99.90
43524;DHT22;29120;52.006;6.020;2023-03-26T12:18:34;10.00;99.90
43524;DHT22;29120;52.006;6.020;2023-03-26T12:21:02;10.10;99.90
43524;DHT22;29120;52.006;6.020;2023-03-26T12:23:37;10.10;99.90
43524;DHT22;29120;52.006;6.020;2023-03-26T12:26:03;10.10;99.90
43524;DHT22;29120;52.006;6.020;2023-03-26T12:28:30;10.10;99.90
43524;DHT22;29120;52.006;6.020;2023-03-26T12:31:03;10.10;99.90
43524;DHT22;29120;52.006;6.020;2023-03-26T12:33:29;10.10;99.90
43524;DHT22;29120;52.006;6.020;2023-03-26T12:35:58;10.10;99.90
43524;DHT22;29120;52.006;6.020;2023-03-26T12:41:04;10.00;99.90
43524;DHT22;29120;52.006;6.020;2023-03-26T12:43:38;10.00;99.90
43524;DHT22;29120;52.006;6.020;2023-03-26T12:46:18;9.90;99.90
43524;DHT22;29120;52.006;6.020;2023-03-26T12:48:44;9.80;99.90
43524;DHT22;29120;52.006;6.020;2023-03-26T12:59:20;9.50;99.90
43524;DHT22;29120;52.006;6.020;2023-03-26T13:01:54;9.50;99.90
43524;DHT22;29120;52.006;6.020;2023-03-26T13:07:14;9.50;99.90
43524;DHT22;29120;52.006;6.020;2023-03-26T13:09:43;9.50;99.90
43524;DHT22;29120;52.006;6.020;2023-03-26T13:14:54;9.50;99.90
43524;DHT22;29120;52.006;6.020;2023-03-26T13:20:00;9.40;99.90
43524;DHT22;29120;52.006;6.020;2023-03-26T13:25:20;9.50;99.90
43524;DHT22;29120;52.006;6.020;2023-03-26T13:35:38;9.50;99.90
43524;DHT22;29120;52.006;6.020;2023-03-26T13:38:10;9.50;99.90
43524;DHT22;29120;52.006;6.020;2023-03-26T13:43:45;9.60;99.90
43524;DHT22;29120;52.006;6.020;2023-03-26T13:46:20;9.70;99.90
43524;DHT22;29120;52.006;6.020;2023-03-26T13:48:57;9.90;99.90
43524;DHT22;29120;52.006;6.020;2023-03-26T13:52:10;10.10;99.90
43524;DHT22;29120;52.006;6.020;2023-03-26T13:56:43;10.50;99.90
43524;DHT22;29120;52.006;6.020;2023-03-26T14:01:40;10.80;99.90
43524;DHT22;29120;52.006;6.020;2023-03-26T14:04:26;10.90;99.90
43524;DHT22;29120;52.006;6.020;2023-03-26T14:12:20;11.10;99.90
43524;DHT22;29120;52.006;6.020;2023-03-26T14:14:52;11.20;99.90
43524;DHT22;29120;52.006;6.020;2023-03-26T14:22:20;11.40;99.90
43524;DHT22;29120;52.006;6.020;2023-03-26T14:43:51;11.30;99.90
43524;DHT22;29120;52.006;6.020;2023-03-26T14:54:08;11.20;99.90
43524;DHT22;29120;52.006;6.020;2023-03-26T14:56:48;11.00;99.90
43524;DHT22;29120;52.006;6.020;2023-03-26T15:09:52;10.80;99.90
43524;DHT22;29120;52.006;6.020;2023-03-26T15:15:05;10.50;99.90
43524;DHT22;29120;52.006;6.020;2023-03-26T15:20:09;10.40;99.90
43524;DHT22;29120;52.006;6.020;2023-03-26T15:34:05;10.00;99.90
43524;DHT22;29120;52.006;6.020;2023-03-26T15:38:45;10.00;99.90
43524;DHT22;29120;52.006;6.020;2023-03-26T15:41:16;10.00;99.90
43524;DHT22;29120;52.006;6.020;2023-03-26T15:49:04;10.10;99.90
43524;DHT22;29120;52.006;6.020;2023-03-26T15:56:50;9.80;99.90
43524;DHT22;29120;52.006;6.020;2023-03-26T16:04:38;9.70;99.90
43524;DHT22;29120;52.006;6.020;2023-03-26T16:07:09;9.60;99.90
43524;DHT22;29120;52.006;6.020;2023-03-26T16:14:46;9.40;99.90
43524;DHT22;29120;52.006;6.020;2023-03-26T16:17:15;9.40;99.90
43524;DHT22;29120;52.006;6.020;2023-03-26T16:19:56;9.40;99.90
43524;DHT22;29120;52.006;6.020;2023-03-26T16:27:38;9.20;99.90
43524;DHT22;29120;52.006;6.020;2023-03-26T16:30:11;9.10;99.90
43524;DHT22;29120;52.006;6.020;2023-03-26T16:32:39;9.10;99.90
43524;DHT22;29120;52.006;6.020;2023-03-26T16:48:20;8.90;99.50
43524;DHT22;29120;52.006;6.020;2023-03-26T16:50:57;8.90;99.70
43524;DHT22;29120;52.006;6.020;2023-03-26T16:58:49;8.80;99.20
43524;DHT22;29120;52.006;6.020;2023-03-26T17:01:32;8.70;99.20
43524;DHT22;29120;52.006;6.020;2023-03-26T17:09:22;8.70;99.30
43524;DHT22;29120;52.006;6.020;2023-03-26T17:12:05;8.70;99.30
43524;DHT22;29120;52.006;6.020;2023-03-26T17:17:22;8.70;99.60
43524;DHT22;29120;52.006;6.020;2023-03-26T17:19:54;8.70;99.50
43524;DHT22;29120;52.006;6.020;2023-03-26T17:28:10;8.60;99.20
43524;DHT22;29120;52.006;6.020;2023-03-26T17:33:10;8.40;98.90
43524;DHT22;29120;52.006;6.020;2023-03-26T17:35:44;8.30;98.40
43524;DHT22;29120;52.006;6.020;2023-03-26T17:40:51;8.20;98.40
43524;DHT22;29120;52.006;6.020;2023-03-26T17:46:36;8.10;98.30
43524;DHT22;29120;52.006;6.020;2023-03-26T17:49:00;8.10;98.40
43524;DHT22;29120;52.006;6.020;2023-03-26T17:51:47;8.00;98.20
43524;DHT22;29120;52.006;6.020;2023-03-26T17:56:50;7.90;98.10
43524;DHT22;29120;52.006;6.020;2023-03-26T17:59:18;7.90;98.30
43524;DHT22;29120;52.006;6.020;2023-03-26T18:01:48;7.80;98.30
43524;DHT22;29120;52.006;6.020;2023-03-26T18:04:18;7.80;98.30
43524;DHT22;29120;52.006;6.020;2023-03-26T18:07:07;7.90;97.70
43524;DHT22;29120;52.006;6.020;2023-03-26T18:09:50;7.70;97.80
43524;DHT22;29120;52.006;6.020;2023-03-26T18:14:53;7.60;97.40
43524;DHT22;29120;52.006;6.020;2023-03-26T18:17:22;7.60;97.40
43524;DHT22;29120;52.006;6.020;2023-03-26T18:19:51;7.60;97.50
43524;DHT22;29120;52.006;6.020;2023-03-26T18:22:18;7.60;97.50
43524;DHT22;29120;52.006;6.020;2023-03-26T18:24:44;7.60;97.40
43524;DHT22;29120;52.006;6.020;2023-03-26T18:27:11;7.50;97.20
43524;DHT22;29120;52.006;6.020;2023-03-26T18:29:37;7.50;97.30
43524;DHT22;29120;52.006;6.020;2023-03-26T18:34:37;7.50;96.80
43524;DHT22;29120;52.006;6.020;2023-03-26T18:39:35;7.50;96.80
43524;DHT22;29120;52.006;6.020;2023-03-26T18:42:01;7.50;96.60
43524;DHT22;29120;52.006;6.020;2023-03-26T18:44:26;7.40;96.70
43524;DHT22;29120;52.006;6.020;2023-03-26T18:46:52;7.40;96.70
43524;DHT22;29120;52.006;6.020;2023-03-26T18:49:19;7.40;96.70
43524;DHT22;29120;52.006;6.020;2023-03-26T18:51:45;7.40;96.40
43524;DHT22;29120;52.006;6.020;2023-03-26T18:54:15;7.40;96.20
43524;DHT22;29120;52.006;6.020;2023-03-26T18:56:42;7.30;96.30
43524;DHT22;29120;52.006;6.020;2023-03-26T18:59:27;7.40;96.20
43524;DHT22;29120;52.006;6.020;2023-03-26T19:01:56;7.30;96.10
43524;DHT22;29120;52.006;6.020;2023-03-26T19:04:23;7.20;96.10
43524;DHT22;29120;52.006;6.020;2023-03-26T19:06:50;7.10;95.60
43524;DHT22;29120;52.006;6.020;2023-03-26T19:09:19;7.10;95.80
43524;DHT22;29120;52.006;6.020;2023-03-26T19:11:47;7.00;95.70
43524;DHT22;29120;52.006;6.020;2023-03-26T19:14:14;7.00;95.80
43524;DHT22;29120;52.006;6.020;2023-03-26T19:16:39;6.90;95.40
43524;DHT22;29120;52.006;6.020;2023-03-26T19:19:08;6.90;95.50
43524;DHT22;29120;52.006;6.020;2023-03-26T19:21:34;6.90;95.70
43524;DHT22;29120;52.006;6.020;2023-03-26T19:24:00;6.90;95.80
43524;DHT22;29120;52.006;6.020;2023-03-26T19:26:26;6.90;96.00
43524;DHT22;29120;52.006;6.020;2023-03-26T19:28:53;6.90;95.90
43524;DHT22;29120;52.006;6.020;2023-03-26T19:31:24;6.90;95.90
43524;DHT22;29120;52.006;6.020;2023-03-26T19:33:52;6.90;96.00
43524;DHT22;29120;52.006;6.020;2023-03-26T19:36:19;6.90;95.70
43524;DHT22;29120;52.006;6.020;2023-03-26T19:38:52;6.90;95.80
43524;DHT22;29120;52.006;6.020;2023-03-26T19:41:22;6.80;95.70
43524;DHT22;29120;52.006;6.020;2023-03-26T19:43:49;6.80;95.70
43524;DHT22;29120;52.006;6.020;2023-03-26T19:46:16;6.70;96.00
43524;DHT22;29120;52.006;6.020;2023-03-26T19:48:41;6.60;96.20
43524;DHT22;29120;52.006;6.020;2023-03-26T19:51:13;6.60;96.30
43524;DHT22;29120;52.006;6.020;2023-03-26T19:53:43;6.50;96.30
43524;DHT22;29120;52.006;6.020;2023-03-26T19:56:11;6.40;96.30
43524;DHT22;29120;52.006;6.020;2023-03-26T19:58:39;6.30;96.40
43524;DHT22;29120;52.006;6.020;2023-03-26T20:01:05;6.20;96.60
43524;DHT22;29120;52.006;6.020;2023-03-26T20:03:40;6.10;96.80
43524;DHT22;29120;52.006;6.020;2023-03-26T20:06:14;6.00;97.10
43524;DHT22;29120;52.006;6.020;2023-03-26T20:08:40;6.00;97.30
43524;DHT22;29120;52.006;6.020;2023-03-26T20:11:11;5.90;96.90
43524;DHT22;29120;52.006;6.020;2023-03-26T20:13:38;5.90;97.20
43524;DHT22;29120;52.006;6.020;2023-03-26T20:16:06;5.80;97.40
43524;DHT22;29120;52.006;6.020;2023-03-26T20:18:34;5.80;97.50
43524;DHT22;29120;52.006;6.020;2023-03-26T20:21:01;5.70;97.60
43524;DHT22;29120;52.006;6.020;2023-03-26T20:23:29;5.70;97.60
43524;DHT22;29120;52.006;6.020;2023-03-26T20:25:55;5.70;97.50
43524;DHT22;29120;52.006;6.020;2023-03-26T20:28:20;5.60;97.70
43524;DHT22;29120;52.006;6.020;2023-03-26T20:30:46;5.60;97.90
43524;DHT22;29120;52.006;6.020;2023-03-26T20:33:16;5.60;98.00
43524;DHT22;29120;52.006;6.020;2023-03-26T20:35:43;5.50;98.20
43524;DHT22;29120;52.006;6.020;2023-03-26T20:38:09;5.50;98.30
43524;DHT22;29120;52.006;6.020;2023-03-26T20:40:34;5.50;98.10
43524;DHT22;29120;52.006;6.020;2023-03-26T20:43:00;5.40;98.30
43524;DHT22;29120;52.006;6.020;2023-03-26T20:45:25;5.40;98.30
43524;DHT22;29120;52.006;6.020;2023-03-26T20:47:51;5.40;98.50
43524;DHT22;29120;52.006;6.020;2023-03-26T20:50:19;5.30;98.60
43524;DHT22;29120;52.006;6.020;2023-03-26T20:52:46;5.30;98.70
43524;DHT22;29120;52.006;6.020;2023-03-26T20:55:13;5.30;98.80
43524;DHT22;29120;52.006;6.020;2023-03-26T20:57:40;5.40;98.90
43524;DHT22;29120;52.006;6.020;2023-03-26T21:00:06;5.40;99.00
43524;DHT22;29120;52.006;6.020;2023-03-26T21:02:46;5.50;99.10
43524;DHT22;29120;52.006;6.020;2023-03-26T21:05:13;5.50;99.10
43524;DHT22;29120;52.006;6.020;2023-03-26T21:07:49;5.60;99.10
43524;DHT22;29120;52.006;6.020;2023-03-26T21:10:14;5.70;99.10
43524;DHT22;29120;52.006;6.020;2023-03-26T21:15:26;5.70;99.10
43524;DHT22;29120;52.006;6.020;2023-03-26T21:17:54;5.80;99.20